메인 페이지
METAR-TAF:

METAR-TAF

공항 :

히스로 공항

런던 / 히드로, 잉글랜드

위도: 51-29N, 경도: 000-27W, 고도: 24m

현재 날씨관측

예보는 40분 전, 02:20시(UTC)에 발표되었습니다.
서남서3kt
온도 7°C
습도 87%
기압 1025 hPa
시정 10km 이상

METAR: EGLL 190220Z AUTO 24003KT 9999 NCD 07/05 Q1025 NOSIG

시각: 03:00 (03:00 UTC)

예보

예보는 4 시간 7분 전, 22:53시(UTC)에 발표되었습니다.
예보 대상 시간: 19일 00시부터 20일 06시까지 (UTC)
여러 방향의 바람 4kt
시정 10km 이상
고도 3500ft 상공 구름 보통
일시적
19일 03시부터 19일 10시까지 (UTC)
시정: 8000m
고도 900ft 상공 구름 많음
확률 30% :
일시적
19일 03시부터 19일 08시까지 (UTC)
시정: 4000m
고도 300ft 상공 구름 많음
박무
전환 중
20일 00시부터 20일 03시까지 (UTC)
시정: 8000m
고도 800ft 상공 구름 많음
확률 30% :
일시적
20일 03시부터 20일 06시까지 (UTC)
시정: 4000m
고도 300ft 상공 구름 많음
박무

TAF: EGLL 182253Z 1900/2006 VRB04KT 9999 SCT035 TEMPO 1903/1910 8000 BKN009 PROB30 TEMPO 1903/1908 4000 BR BKN003 BECMG 2000/2003 8000 BKN008 PROB30 TEMPO 2003/2006 4000 BR BKN003

4,000개 이상의 공항 관측 자료 및 예보 (METAR 및 TAF 보고).

지도상에서 검색 가능한 기상관측소가 노란 점과 빨간 점으로 표시되어 있습니다.

기상관측소 명을 보려면 표시 위로 마우스를 이동하세요.

날씨 관측과 예보를 보려면 클릭하세요.

지도 변경 : 확대하려면 엑스 표시가 있는 녹색 버튼, 축소하려면 빼기 표시가 있는 녹색 버튼, 다음 페이지의 지도를 보려면 녹색 화살표를 클릭하세요.


METAR-TAF: